Time;durP1;ratioP1;P1;durP2;ratioP2;P2;SDS_P1;SDS_P2;PMS_P1;PMS_P2;Temp;Humidity;BMP_temperature;BMP_pressure;BME280_temperature;BME280_humidity;BME280_pressure;Samples;Min_cycle;Max_cycle;Signal;HPM_P1;HPM_P2
2021/01/31 00:00:34;;;;;;;15.70;9.55;;;2.90;73.80;;;;;;4862718;29;20037;-83
2021/01/31 00:03:05;;;;;;;12.63;8.45;;;2.90;73.90;;;;;;4878529;29;20169;-83
2021/01/31 00:05:31;;;;;;;12.57;9.02;;;2.90;73.80;;;;;;4862476;29;20064;-83
2021/01/31 00:07:57;;;;;;;14.63;9.30;;;2.90;73.80;;;;;;4878658;29;20486;-84
2021/01/31 00:10:27;;;;;;;13.45;8.90;;;2.80;74.30;;;;;;4875259;29;20042;-84
2021/01/31 00:12:52;;;;;;;14.77;9.60;;;2.90;73.90;;;;;;4859603;29;20033;-83
2021/01/31 00:15:22;;;;;;;15.25;10.25;;;2.90;73.80;;;;;;4860946;29;20063;-84
2021/01/31 00:17:48;;;;;;;15.90;10.30;;;2.90;73.90;;;;;;4859033;29;20078;-83
2021/01/31 00:20:16;;;;;;;14.15;10.02;;;2.80;73.80;;;;;;4870655;29;20033;-84
2021/01/31 00:22:42;;;;;;;12.45;8.95;;;2.80;73.90;;;;;;4877849;29;20021;-83
2021/01/31 00:25:08;;;;;;;12.95;8.23;;;2.80;73.90;;;;;;4862782;29;20036;-84
2021/01/31 00:27:37;;;;;;;13.65;9.52;;;2.90;73.90;;;;;;4877840;29;20124;-84
2021/01/31 00:30:07;;;;;;;;;;;2.80;73.90;;;;;;4893698;29;20047;-84
2021/01/31 00:32:32;;;;;;;12.63;9.07;;;2.80;74.50;;;;;;4878897;29;19908;-84
2021/01/31 00:34:58;;;;;;;13.70;8.50;;;2.80;73.90;;;;;;4862636;29;20051;-86
2021/01/31 00:37:24;;;;;;;13.40;8.77;;;2.80;73.90;;;;;;4878446;29;20475;-86
2021/01/31 00:39:51;;;;;;;12.65;8.98;;;2.80;74.50;;;;;;4893527;29;20469;-86
2021/01/31 00:42:19;;;;;;;14.70;9.98;;;2.80;73.90;;;;;;4893622;29;20024;-86
2021/01/31 00:44:47;;;;;;;13.50;9.10;;;2.80;73.90;;;;;;4877145;29;20068;-86
2021/01/31 00:47:15;;;;;;;14.23;9.45;;;2.80;73.90;;;;;;4878158;29;20028;-86
2021/01/31 00:49:43;;;;;;;15.07;10.15;;;2.80;73.90;;;;;;4878301;29;20033;-87
2021/01/31 00:52:10;;;;;;;15.02;10.05;;;2.80;73.80;;;;;;4879370;29;20033;-86
2021/01/31 00:54:35;;;;;;;13.65;9.13;;;2.80;73.90;;;;;;4914740;23;20025;-92
2021/01/31 00:57:01;;;;;;;12.95;9.18;;;2.80;74.00;;;;;;4898502;29;20475;-92
2021/01/31 00:59:27;;;;;;;13.63;9.65;;;2.80;73.90;;;;;;4882797;29;20501;-92
2021/01/31 01:01:52;;;;;;;14.52;10.15;;;2.80;73.80;;;;;;4882700;29;20550;-92
2021/01/31 01:04:18;;;;;;;15.48;10.15;;;2.70;73.80;;;;;;4863592;29;20124;-92
2021/01/31 01:06:45;;;;;;;12.95;8.77;;;2.70;73.80;;;;;;4848726;29;20033;-92
2021/01/31 01:09:12;;;;;;;14.90;10.00;;;2.80;73.90;;;;;;4879509;29;20120;-91
2021/01/31 01:11:38;;;;;;;13.73;9.68;;;2.80;73.80;;;;;;4864028;29;20088;-93
2021/01/31 01:14:04;;;;;;;13.18;9.43;;;2.70;73.80;;;;;;4863742;29;20061;-93
2021/01/31 01:16:29;;;;;;;14.93;9.77;;;2.70;73.80;;;;;;4863642;29;20033;-92
2021/01/31 01:18:56;;;;;;;14.05;9.38;;;2.70;73.80;;;;;;4879148;29;20079;-92
2021/01/31 01:21:22;;;;;;;14.68;9.57;;;2.70;73.80;;;;;;4848771;29;20124;-93
2021/01/31 01:23:47;;;;;;;15.55;10.15;;;2.70;73.80;;;;;;4879298;29;20069;-92
2021/01/31 01:26:13;;;;;;;12.93;8.90;;;2.70;73.80;;;;;;4879222;29;20112;-92
2021/01/31 01:28:38;;;;;;;13.20;9.45;;;2.70;73.90;;;;;;4863469;29;20033;-92
2021/01/31 01:31:04;;;;;;;13.02;9.30;;;2.70;73.90;;;;;;4863694;29;20041;-92
2021/01/31 01:33:30;;;;;;;13.73;9.52;;;2.60;73.90;;;;;;4848603;29;20396;-92
2021/01/31 01:35:55;;;;;;;14.30;10.30;;;2.60;74.00;;;;;;4863422;29;20036;-93
2021/01/31 01:38:21;;;;;;;15.57;10.18;;;2.60;73.90;;;;;;4863480;29;20483;-92
2021/01/31 01:40:46;;;;;;;12.88;9.25;;;2.60;74.00;;;;;;4896109;29;20056;-92
2021/01/31 01:43:18;;;;;;;14.18;9.85;;;2.60;74.10;;;;;;4882371;29;20065;-92
2021/01/31 01:45:44;;;;;;;15.38;10.68;;;2.60;74.10;;;;;;4897979;29;20034;-92
2021/01/31 01:48:18;;;;;;;13.13;9.45;;;2.50;74.10;;;;;;4879256;29;20029;-92
2021/01/31 01:50:54;;;;;;;14.02;9.15;;;2.60;74.20;;;;;;4860868;29;20029;-92
2021/01/31 01:53:23;;;;;;;14.57;10.07;;;2.60;74.20;;;;;;4864366;29;20040;-92
2021/01/31 01:56:09;;;;;;;14.25;9.88;;;2.60;74.20;;;;;;4879238;29;20105;-92
2021/01/31 01:58:34;;;;;;;14.18;9.27;;;2.60;74.20;;;;;;4878722;29;20103;-92
2021/01/31 02:01:02;;;;;;;15.68;10.77;;;2.50;74.10;;;;;;4862771;29;20073;-92
2021/01/31 02:03:31;;;;;;;16.27;11.20;;;2.50;74.20;;;;;;4878644;29;20032;-92
2021/01/31 02:06:07;;;;;;;14.18;9.98;;;2.50;74.20;;;;;;4879566;29;20369;-92
2021/01/31 02:08:33;;;;;;;13.27;9.88;;;2.50;74.30;;;;;;4879856;29;20085;-92
2021/01/31 02:10:59;;;;;;;13.32;9.65;;;2.50;74.30;;;;;;4862551;29;20037;-92
2021/01/31 02:13:25;;;;;;;14.65;10.57;;;2.50;74.30;;;;;;4877990;29;20037;-92
2021/01/31 02:15:53;;;;;;;12.63;9.38;;;2.50;74.30;;;;;;4878391;29;20029;-92
2021/01/31 02:19:02;;;;;;;17.25;11.05;;;2.50;74.40;;;;;;4881237;29;20037;-91
2021/01/31 02:21:33;;;;;;;;;;;2.40;74.30;;;;;;4853685;29;20132;-92
2021/01/31 02:24:11;;;;;;;15.30;11.85;;;2.40;74.30;;;;;;4881330;29;19912;-92
2021/01/31 02:26:42;;;;;;;14.57;10.60;;;2.30;74.30;;;;;;4881494;29;20123;-93
2021/01/31 02:29:46;;;;;;;15.35;10.75;;;2.30;74.40;;;;;;4881146;29;20029;-92
2021/01/31 02:32:47;;;;;;;19.98;13.32;;;2.30;74.50;;;;;;4881495;29;20029;-92
2021/01/31 02:35:18;;;;;;;16.45;11.25;;;2.30;75.30;;;;;;4774061;30;20067;-92
2021/01/31 02:38:09;;;;;;;18.27;11.52;;;2.20;74.70;;;;;;4862131;29;20472;-91
2021/01/31 02:40:52;;;;;;;15.15;10.45;;;2.20;74.80;;;;;;4866372;29;20041;-92
2021/01/31 02:43:28;;;;;;;15.43;10.68;;;2.20;74.90;;;;;;4881288;29;20029;-92
2021/01/31 02:46:04;;;;;;;15.95;11.07;;;2.20;74.90;;;;;;4880640;29;20036;-92
2021/01/31 02:48:42;;;;;;;15.10;10.98;;;2.20;74.80;;;;;;4881310;29;20025;-91
2021/01/31 02:51:11;;;;;;;16.40;11.13;;;2.20;74.80;;;;;;4881522;29;20029;-91
2021/01/31 02:53:41;;;;;;;16.65;12.00;;;2.20;74.90;;;;;;4881177;29;20119;-91
2021/01/31 02:56:45;;;;;;;16.70;11.38;;;2.20;74.90;;;;;;4881042;29;20177;-91
2021/01/31 02:59:16;;;;;;;17.02;11.88;;;2.10;74.90;;;;;;4881098;29;20037;-91
2021/01/31 03:01:53;;;;;;;15.88;11.05;;;2.10;74.90;;;;;;4880809;29;20104;-91
2021/01/31 03:04:56;;;;;;;18.35;11.95;;;2.10;75.00;;;;;;4880973;29;20116;-92
2021/01/31 03:07:26;;;;;;;15.68;10.88;;;2.10;74.90;;;;;;4880783;29;20021;-91
2021/01/31 03:09:54;;;;;;;16.05;11.32;;;2.10;74.90;;;;;;4880771;29;20036;-92
2021/01/31 03:12:24;;;;;;;15.25;9.93;;;2.10;74.90;;;;;;4880571;29;20503;-92
2021/01/31 03:14:59;;;;;;;14.50;10.70;;;2.10;74.90;;;;;;4882610;29;20032;-91
2021/01/31 03:17:44;;;;;;;15.50;11.07;;;2.10;74.90;;;;;;4899993;29;20088;-90
2021/01/31 03:20:22;;;;;;;15.50;11.15;;;2.10;74.80;;;;;;4899117;29;20502;-86
2021/01/31 03:22:51;;;;;;;16.33;10.93;;;2.10;74.80;;;;;;4898841;29;20025;-86
2021/01/31 03:25:32;;;;;;;16.02;10.55;;;2.10;74.80;;;;;;4898776;29;20033;-85
2021/01/31 03:27:59;;;;;;;14.15;9.70;;;2.10;74.80;;;;;;4897812;29;20040;-86
2021/01/31 03:30:25;;;;;;;15.75;10.13;;;2.10;74.80;;;;;;4883401;29;20048;-86
2021/01/31 03:33:07;;;;;;;14.52;9.95;;;2.10;74.80;;;;;;4898267;29;20537;-86
2021/01/31 03:35:40;;;;;;;15.77;10.75;;;2.10;74.80;;;;;;4888267;29;20396;-86
2021/01/31 03:38:23;;;;;;;14.88;10.27;;;2.10;74.80;;;;;;4879511;29;20029;-86
2021/01/31 03:40:52;;;;;;;13.38;9.10;;;2.10;74.70;;;;;;4879474;29;20043;-85
2021/01/31 03:43:19;;;;;;;16.17;10.90;;;2.10;74.70;;;;;;4879885;29;20033;-85
2021/01/31 03:46:19;;;;;;;14.65;10.13;;;2.10;74.70;;;;;;4871306;29;20037;-85
2021/01/31 03:48:54;;;;;;;14.48;9.80;;;2.10;74.70;;;;;;4879685;29;20097;-86
2021/01/31 03:51:20;;;;;;;14.63;9.80;;;2.10;74.70;;;;;;4879842;29;20080;-85
2021/01/31 03:53:49;;;;;;;14.13;9.90;;;2.10;74.70;;;;;;4879358;29;20043;-86
2021/01/31 03:56:20;;;;;;;13.45;8.90;;;2.10;74.60;;;;;;4879348;29;20041;-85
2021/01/31 03:58:50;;;;;;;15.05;11.05;;;2.10;74.70;;;;;;4881035;29;20033;-86
2021/01/31 04:01:17;;;;;;;12.20;8.68;;;2.10;74.60;;;;;;4879457;29;20033;-86
2021/01/31 04:04:01;;;;;;;13.45;9.13;;;2.10;74.60;;;;;;4879553;29;20029;-86
2021/01/31 04:06:30;;;;;;;14.65;9.27;;;2.10;74.50;;;;;;4879650;29;20035;-86
2021/01/31 04:08:58;;;;;;;13.13;9.23;;;2.10;74.50;;;;;;4889371;29;20483;-90
2021/01/31 04:11:39;;;;;;;14.30;9.77;;;2.10;74.50;;;;;;4868149;29;20085;-90
2021/01/31 04:14:20;;;;;;;14.27;10.05;;;2.10;74.50;;;;;;4879036;29;20021;-90
2021/01/31 04:16:49;;;;;;;12.65;9.35;;;2.10;74.90;;;;;;4879746;29;20033;-90
2021/01/31 04:19:15;;;;;;;15.20;9.45;;;2.10;74.50;;;;;;4879367;29;20035;-91
2021/01/31 04:21:41;;;;;;;14.07;10.13;;;2.10;74.50;;;;;;4864347;29;20056;-90
2021/01/31 04:24:08;;;;;;;12.90;9.85;;;2.10;74.50;;;;;;4879260;29;20123;-91
2021/01/31 04:26:34;;;;;;;17.20;12.50;;;2.00;74.50;;;;;;4849681;29;20045;-90
2021/01/31 04:29:00;;;;;;;15.38;10.55;;;2.00;74.50;;;;;;4871849;29;20108;-90
2021/01/31 04:31:27;;;;;;;13.13;9.07;;;2.00;74.60;;;;;;4879359;29;20033;-90
2021/01/31 04:33:53;;;;;;;13.98;9.75;;;2.00;74.70;;;;;;4880198;29;20021;-86
2021/01/31 04:36:21;;;;;;;13.43;9.75;;;2.00;74.60;;;;;;4878834;29;20036;-86
2021/01/31 04:38:47;;;;;;;13.68;9.80;;;2.00;74.70;;;;;;4863141;29;20120;-86
2021/01/31 04:41:12;;;;;;;12.43;9.00;;;2.00;74.60;;;;;;4847922;29;20119;-90
2021/01/31 04:43:38;;;;;;;16.70;10.85;;;1.90;74.60;;;;;;4878864;29;20124;-90
2021/01/31 04:46:08;;;;;;;16.13;11.27;;;2.00;74.60;;;;;;4863084;29;20558;-90
2021/01/31 04:48:47;;;;;;;14.35;10.00;;;1.90;74.50;;;;;;4878810;29;20025;-89
2021/01/31 04:51:33;;;;;;;13.63;9.48;;;1.90;74.60;;;;;;4878353;29;20033;-90
2021/01/31 04:54:17;;;;;;;16.55;10.57;;;1.90;74.60;;;;;;4878381;29;20037;-90
2021/01/31 04:56:58;;;;;;;14.73;9.10;;;1.90;74.60;;;;;;4878767;29;20049;-90
2021/01/31 04:59:42;;;;;;;15.38;9.57;;;1.90;74.60;;;;;;4883120;29;20040;-89
2021/01/31 05:02:20;;;;;;;15.70;10.85;;;1.90;74.60;;;;;;4897129;29;20029;-89
2021/01/31 05:04:56;;;;;;;14.05;9.57;;;1.90;74.70;;;;;;4897143;29;20032;-89
2021/01/31 05:07:27;;;;;;;14.75;10.10;;;1.80;74.60;;;;;;4888995;29;21321;-86
2021/01/31 05:10:05;;;;;;;14.35;10.32;;;1.90;74.80;;;;;;4883224;29;20036;-87
2021/01/31 05:16:17;;;;;;;14.75;9.88;;;1.80;74.70;;;;;;4897090;29;20074;-88
2021/01/31 05:19:21;;;;;;;16.38;10.35;;;1.80;74.60;;;;;;4866393;29;20036;-89
2021/01/31 05:22:57;;;;;;;;;;;;;;;;;;;;;
2021/01/31 05:32:13;;;;;;;15.85;10.52;;;1.70;74.80;;;;;;4809573;29;20047;-89
2021/01/31 05:34:49;;;;;;;14.80;10.50;;;1.70;74.90;;;;;;4844429;29;20041;-88
2021/01/31 05:37:59;;;;;;;14.60;10.88;;;1.60;74.90;;;;;;4896342;29;20028;-89
2021/01/31 05:40:44;;;;;;;15.80;9.50;;;1.60;75.00;;;;;;4879395;29;20092;-89
2021/01/31 05:43:52;;;;;;;17.60;11.05;;;1.60;74.90;;;;;;4847857;29;20048;-88
2021/01/31 05:46:18;;;;;;;14.67;9.53;;;1.60;74.90;;;;;;4892864;29;20044;-88
2021/01/31 05:48:43;;;;;;;14.65;10.05;;;1.60;74.90;;;;;;4862125;29;20341;-88
2021/01/31 05:51:15;;;;;;;13.13;9.40;;;1.50;74.90;;;;;;4846729;29;20072;-88
2021/01/31 05:53:41;;;;;;;15.02;9.10;;;1.50;74.90;;;;;;4877665;29;20033;-89
2021/01/31 05:56:26;;;;;;;13.80;9.82;;;1.50;74.80;;;;;;4877163;29;20100;-88
2021/01/31 05:58:58;;;;;;;14.07;10.23;;;1.50;74.90;;;;;;4879372;29;20052;-88
2021/01/31 06:01:25;;;;;;;16.52;11.13;;;1.50;74.80;;;;;;4894719;29;20029;-88
2021/01/31 06:03:51;;;;;;;13.27;9.57;;;1.50;74.70;;;;;;4887364;29;20548;-88
2021/01/31 06:06:19;;;;;;;18.17;11.35;;;1.50;74.70;;;;;;4877402;29;20037;-88
2021/01/31 06:08:49;;;;;;;17.20;11.88;;;1.40;74.70;;;;;;4877723;29;20476;-88
2021/01/31 06:11:25;;;;;;;17.15;11.70;;;1.40;74.70;;;;;;4889115;29;20074;-87
2021/01/31 06:14:06;;;;;;;16.73;11.38;;;1.40;74.70;;;;;;4896422;29;20415;-88
2021/01/31 06:16:34;;;;;;;14.20;10.18;;;1.30;74.70;;;;;;4895979;29;20036;-88
2021/01/31 06:19:08;;;;;;;14.80;9.70;;;1.30;74.70;;;;;;4896274;29;20028;-88
2021/01/31 06:21:45;;;;;;;15.38;9.93;;;1.30;74.80;;;;;;4897594;29;20039;-88
2021/01/31 06:24:39;;;;;;;15.63;11.20;;;1.30;74.80;;;;;;4897215;29;20117;-88
2021/01/31 06:27:05;;;;;;;14.75;9.95;;;1.30;74.70;;;;;;4895970;29;20490;-88
2021/01/31 06:29:53;;;;;;;14.95;9.88;;;1.30;74.70;;;;;;4896336;29;20081;-88
2021/01/31 06:32:28;;;;;;;16.40;10.52;;;1.30;74.80;;;;;;4896042;29;20123;-88
2021/01/31 06:34:57;;;;;;;16.60;10.90;;;1.30;74.80;;;;;;4896451;29;20136;-88
2021/01/31 06:37:22;;;;;;;;;;;1.20;74.70;;;;;;4896453;29;20033;-88
2021/01/31 06:40:08;;;;;;;15.38;10.18;;;1.20;74.70;;;;;;4896497;29;19915;-88
2021/01/31 06:43:02;;;;;;;14.75;10.10;;;1.20;74.80;;;;;;4896496;29;20143;-88
2021/01/31 06:45:52;;;;;;;14.13;9.60;;;1.20;74.80;;;;;;4884255;29;20029;-87
2021/01/31 06:48:40;;;;;;;14.25;9.52;;;1.20;74.80;;;;;;4877233;29;20025;-89
2021/01/31 06:51:27;;;;;;;13.55;8.93;;;1.20;74.80;;;;;;4877279;29;20037;-89
2021/01/31 06:56:44;;;;;;;12.00;8.85;;;1.20;74.70;;;;;;4868160;29;20068;-91
2021/01/31 06:59:12;;;;;;;13.75;9.18;;;1.20;74.70;;;;;;4860823;29;20065;-91
2021/01/31 07:01:50;;;;;;;14.05;8.52;;;1.20;74.70;;;;;;4859284;29;20132;-91
2021/01/31 07:04:24;;;;;;;13.80;9.00;;;1.20;74.70;;;;;;4862558;29;20030;-91
2021/01/31 07:07:29;;;;;;;13.20;8.57;;;1.10;74.60;;;;;;4863805;29;20022;-91
2021/01/31 07:10:34;;;;;;;15.40;10.07;;;1.10;74.60;;;;;;4863418;29;20041;-91
2021/01/31 07:13:16;;;;;;;14.70;10.00;;;1.10;74.60;;;;;;4863726;29;20029;-91
2021/01/31 07:16:19;;;;;;;16.50;10.82;;;1.10;74.60;;;;;;4863591;29;20112;-91
2021/01/31 07:19:16;;;;;;;15.82;10.45;;;1.10;74.60;;;;;;4871725;29;20108;-91
2021/01/31 07:21:47;;;;;;;15.70;10.30;;;1.10;74.70;;;;;;4882133;29;20033;-91
2021/01/31 07:24:23;;;;;;;14.18;10.07;;;1.00;74.70;;;;;;4882131;29;20033;-90
2021/01/31 07:26:59;;;;;;;15.02;10.32;;;1.10;74.70;;;;;;4882717;29;20483;-90
2021/01/31 07:29:40;;;;;;;15.00;9.90;;;1.00;74.70;;;;;;4882145;29;20471;-90
2021/01/31 07:32:19;;;;;;;16.38;10.93;;;1.00;74.70;;;;;;4883055;29;20025;-90
2021/01/31 07:34:58;;;;;;;15.27;10.43;;;1.00;74.70;;;;;;4882005;29;20476;-90
2021/01/31 07:37:23;;;;;;;14.80;10.73;;;1.00;74.80;;;;;;4881972;29;20116;-90
2021/01/31 07:40:15;;;;;;;15.45;10.27;;;1.00;75.40;;;;;;4882923;29;20120;-90
2021/01/31 07:42:43;;;;;;;16.60;10.13;;;1.00;74.80;;;;;;4882940;29;20475;-90
2021/01/31 07:45:17;;;;;;;14.48;9.25;;;1.00;74.70;;;;;;4883378;29;20033;-90
2021/01/31 07:47:42;;;;;;;14.48;9.52;;;1.00;74.70;;;;;;4881565;29;20127;-90
2021/01/31 07:50:16;;;;;;;14.30;8.93;;;1.00;74.70;;;;;;4850908;29;20072;-90
2021/01/31 07:52:53;;;;;;;14.32;9.38;;;1.00;74.70;;;;;;4863001;29;20057;-90
2021/01/31 07:55:36;;;;;;;15.95;10.65;;;1.00;74.70;;;;;;4862771;29;20045;-89
2021/01/31 07:58:29;;;;;;;15.65;9.82;;;1.00;74.70;;;;;;4861947;29;20025;-89
2021/01/31 08:00:55;;;;;;;15.85;10.45;;;1.00;74.70;;;;;;4875668;29;20056;-90
2021/01/31 08:03:38;;;;;;;18.55;10.80;;;0.90;74.70;;;;;;4862615;29;20065;-90
2021/01/31 08:06:09;;;;;;;17.42;11.15;;;1.00;74.80;;;;;;4862730;29;20044;-89
2021/01/31 08:08:55;;;;;;;15.32;10.57;;;1.00;74.80;;;;;;4862550;29;20029;-89
2021/01/31 08:11:21;;;;;;;17.85;10.48;;;0.90;74.80;;;;;;4877452;29;20049;-90
2021/01/31 08:13:49;;;;;;;18.67;12.20;;;0.90;74.90;;;;;;4862086;29;20029;-89
2021/01/31 08:16:54;;;;;;;17.55;11.10;;;0.90;74.90;;;;;;4862572;29;20036;-90
2021/01/31 08:19:19;;;;;;;17.63;11.07;;;0.90;74.90;;;;;;4861835;29;20030;-89
2021/01/31 08:21:46;;;;;;;15.73;10.35;;;0.90;75.00;;;;;;4863558;29;20112;-89
2021/01/31 08:24:12;;;;;;;17.92;11.35;;;0.90;74.90;;;;;;4863643;29;20029;-89
2021/01/31 08:26:44;;;;;;;17.83;11.18;;;0.90;74.90;;;;;;4862538;29;20053;-88
2021/01/31 08:29:20;;;;;;;16.13;10.63;;;1.00;75.10;;;;;;4863782;29;20026;-89
2021/01/31 08:32:14;;;;;;;19.13;11.77;;;1.00;75.10;;;;;;4862748;29;20033;-88
2021/01/31 08:35:03;;;;;;;18.02;12.02;;;1.10;75.20;;;;;;4874283;29;20062;-88
2021/01/31 08:37:29;;;;;;;20.08;12.55;;;1.10;75.30;;;;;;4860029;29;20129;-87
2021/01/31 08:39:55;;;;;;;17.92;11.27;;;1.10;75.40;;;;;;4860089;29;20109;-88
2021/01/31 08:42:21;;;;;;;18.67;11.90;;;1.20;75.30;;;;;;4860575;29;20044;-88
2021/01/31 08:44:56;;;;;;;16.80;10.82;;;1.30;75.90;;;;;;4859888;29;20038;-88
2021/01/31 08:47:23;;;;;;;19.27;11.45;;;1.40;75.20;;;;;;4859510;29;20037;-88
2021/01/31 08:49:56;;;;;;;16.35;11.13;;;1.40;75.10;;;;;;4859575;29;20120;-88
2021/01/31 08:52:23;;;;;;;17.90;11.07;;;1.50;75.10;;;;;;4859528;29;20029;-88
2021/01/31 08:55:05;;;;;;;20.75;12.90;;;1.60;74.90;;;;;;4844637;29;20054;-87
2021/01/31 08:57:31;;;;;;;17.40;11.02;;;1.70;74.90;;;;;;4860473;29;20029;-88
2021/01/31 09:00:04;;;;;;;16.55;10.32;;;1.80;74.70;;;;;;4859530;29;20030;-87
2021/01/31 09:02:30;;;;;;;16.30;11.20;;;1.90;74.60;;;;;;4859743;29;20089;-87
2021/01/31 09:05:12;;;;;;;16.05;11.20;;;2.00;74.50;;;;;;4860053;29;20046;-87
2021/01/31 09:07:47;;;;;;;15.57;10.65;;;2.00;74.50;;;;;;4872820;29;20063;-87
2021/01/31 09:10:34;;;;;;;19.30;11.90;;;2.10;74.40;;;;;;4878263;29;20037;-86
2021/01/31 09:13:16;;;;;;;18.00;11.50;;;2.20;74.50;;;;;;4879967;29;20049;-87
2021/01/31 09:15:43;;;;;;;17.73;11.55;;;2.30;74.30;;;;;;4872468;29;20053;-85
2021/01/31 09:18:23;;;;;;;17.02;10.80;;;2.40;74.40;;;;;;4877443;29;20104;-86
2021/01/31 09:20:50;;;;;;;17.48;10.75;;;2.50;74.30;;;;;;4878236;29;20029;-86
2021/01/31 09:23:36;;;;;;;18.42;11.82;;;2.60;74.20;;;;;;4878007;29;20043;-87
2021/01/31 09:26:03;;;;;;;15.75;11.55;;;2.60;74.00;;;;;;4867036;29;20062;-87
2021/01/31 09:28:30;;;;;;;17.83;11.15;;;2.70;74.00;;;;;;4872969;29;20068;-86
2021/01/31 09:31:02;;;;;;;15.57;10.60;;;2.70;74.00;;;;;;4877974;29;20457;-87
2021/01/31 09:33:38;;;;;;;15.02;10.63;;;2.80;74.10;;;;;;4872387;29;20064;-87
2021/01/31 09:36:33;;;;;;;17.33;11.45;;;2.80;74.00;;;;;;4869189;29;20073;-87
2021/01/31 09:39:00;;;;;;;17.48;11.95;;;3.00;73.90;;;;;;4860978;29;20100;-87
2021/01/31 09:41:28;;;;;;;15.45;10.90;;;3.00;73.70;;;;;;4859298;29;20502;-88
2021/01/31 09:43:57;;;;;;;18.98;12.15;;;3.10;73.70;;;;;;4844087;29;20093;-87
2021/01/31 09:46:49;;;;;;;19.38;12.48;;;3.20;73.60;;;;;;4865614;29;20062;-89
2021/01/31 09:49:34;;;;;;;17.95;11.60;;;3.30;73.30;;;;;;4861276;29;20037;-89
2021/01/31 09:52:50;;;;;;;21.15;13.90;;;3.20;73.20;;;;;;4862499;29;20037;-90
2021/01/31 09:55:41;;;;;;;20.23;13.05;;;3.30;73.10;;;;;;4787205;29;20055;-88
2021/01/31 10:01:33;;;;;;;17.63;11.63;;;3.20;72.90;;;;;;4876506;29;20089;-87
2021/01/31 10:04:00;;;;;;;17.60;11.60;;;3.20;73.00;;;;;;4859940;29;20477;-87
2021/01/31 10:06:32;;;;;;;20.10;12.27;;;3.20;73.00;;;;;;4846043;29;20488;-87
2021/01/31 10:09:03;;;;;;;20.17;12.70;;;3.20;73.10;;;;;;4872554;29;20036;-87
2021/01/31 10:11:45;;;;;;;16.80;11.75;;;3.20;72.80;;;;;;4861509;29;20037;-86
2021/01/31 10:14:42;;;;;;;19.20;12.32;;;3.20;72.80;;;;;;4876564;29;20107;-86
2021/01/31 10:17:13;;;;;;;18.85;12.40;;;3.30;72.80;;;;;;4878087;29;20488;-86
2021/01/31 10:19:38;;;;;;;20.40;13.00;;;3.30;72.90;;;;;;4861559;29;20041;-84
2021/01/31 10:22:11;;;;;;;19.10;12.57;;;3.30;72.80;;;;;;4843032;29;20034;-85
2021/01/31 10:24:37;;;;;;;22.15;13.45;;;3.30;72.80;;;;;;4859040;29;20070;-85
2021/01/31 10:27:11;;;;;;;19.40;12.55;;;3.30;72.70;;;;;;4843318;29;20041;-84
2021/01/31 10:29:37;;;;;;;19.30;13.25;;;3.30;72.80;;;;;;4861815;29;20033;-84
2021/01/31 10:32:39;;;;;;;16.95;12.02;;;3.30;72.70;;;;;;4866879;29;20033;-85
2021/01/31 10:35:34;;;;;;;20.73;12.52;;;3.30;72.70;;;;;;4864783;29;20403;-85
2021/01/31 10:38:19;;;;;;;20.75;12.77;;;3.40;72.60;;;;;;4860657;29;20059;-86
2021/01/31 10:40:45;;;;;;;20.10;13.13;;;3.40;72.50;;;;;;4861778;29;20065;-86
2021/01/31 10:43:11;;;;;;;17.33;12.45;;;3.40;72.60;;;;;;4846929;29;20117;-87
2021/01/31 10:45:37;;;;;;;23.73;14.10;;;3.40;72.50;;;;;;4865684;29;20037;-86
2021/01/31 10:48:03;;;;;;;20.98;13.35;;;3.50;72.50;;;;;;4835593;29;20044;-85
2021/01/31 10:50:29;;;;;;;20.42;13.48;;;3.50;72.40;;;;;;4846501;29;20140;-85
2021/01/31 10:52:55;;;;;;;18.35;12.40;;;3.50;72.30;;;;;;4846518;29;20120;-85
2021/01/31 10:55:20;;;;;;;19.55;11.98;;;3.60;72.10;;;;;;4861463;29;20064;-85
2021/01/31 10:57:46;;;;;;;20.13;13.15;;;3.60;72.30;;;;;;4847050;29;20037;-85
2021/01/31 11:00:12;;;;;;;18.73;12.27;;;3.70;72.20;;;;;;4869034;29;20426;-85
2021/01/31 11:02:38;;;;;;;17.20;11.35;;;3.70;72.10;;;;;;4846427;29;20094;-87
2021/01/31 11:05:06;;;;;;;18.45;12.05;;;3.80;72.20;;;;;;4847993;29;20061;-85
2021/01/31 11:07:32;;;;;;;16.20;11.65;;;3.90;72.00;;;;;;4864186;29;20033;-86
2021/01/31 11:09:58;;;;;;;18.35;12.10;;;3.90;72.00;;;;;;4873526;29;20033;-86
2021/01/31 11:12:24;;;;;;;17.52;11.98;;;4.00;71.90;;;;;;4861910;29;20032;-86
2021/01/31 11:14:49;;;;;;;18.67;12.63;;;4.10;71.80;;;;;;4869589;29;20127;-86
2021/01/31 11:17:15;;;;;;;19.88;13.13;;;4.10;72.10;;;;;;4861662;29;20570;-85
2021/01/31 11:19:40;;;;;;;20.38;12.13;;;4.20;71.40;;;;;;4860399;29;20041;-85
2021/01/31 11:22:06;;;;;;;22.00;13.60;;;4.30;71.50;;;;;;4876349;29;20053;-86
2021/01/31 11:24:32;;;;;;;17.70;11.63;;;4.40;71.30;;;;;;4845625;29;20038;-86
2021/01/31 11:26:57;;;;;;;16.23;11.00;;;4.40;71.20;;;;;;4830182;29;20132;-87
2021/01/31 11:29:23;;;;;;;18.30;12.25;;;4.50;71.30;;;;;;4840325;29;20033;-86
2021/01/31 11:31:49;;;;;;;20.63;12.80;;;4.60;71.30;;;;;;4863305;29;20033;-86
2021/01/31 11:34:14;;;;;;;19.45;12.63;;;4.70;70.90;;;;;;4847082;29;20026;-86
2021/01/31 11:36:40;;;;;;;19.38;12.45;;;4.70;70.90;;;;;;4858069;29;20036;-86
2021/01/31 11:39:08;;;;;;;15.73;11.55;;;4.80;70.10;;;;;;4830202;29;20041;-86
2021/01/31 11:41:36;;;;;;;17.08;10.45;;;4.80;70.30;;;;;;4853253;29;20046;-85
2021/01/31 11:44:07;;;;;;;17.40;11.50;;;4.80;70.20;;;;;;4841062;29;20030;-86
2021/01/31 11:49:53;;;;;;;13.95;9.90;;;4.90;70.10;;;;;;4854128;29;20415;-86
2021/01/31 11:52:19;;;;;;;16.17;10.63;;;5.00;70.20;;;;;;4813615;29;20034;-86
2021/01/31 11:54:52;;;;;;;15.05;9.70;;;5.00;70.30;;;;;;4823525;29;20038;-86
2021/01/31 11:57:17;;;;;;;15.10;10.77;;;5.00;70.20;;;;;;4827281;29;20045;-85
2021/01/31 11:59:45;;;;;;;15.50;10.48;;;5.10;70.20;;;;;;4804572;29;20068;-86
2021/01/31 12:02:14;;;;;;;15.20;11.02;;;5.10;70.10;;;;;;4827713;29;20504;-86
2021/01/31 12:04:40;;;;;;;18.00;12.05;;;5.10;70.00;;;;;;4837980;29;20054;-86
2021/01/31 12:07:06;;;;;;;16.02;11.63;;;5.10;69.40;;;;;;4818531;29;20535;-85
2021/01/31 12:09:32;;;;;;;15.73;10.65;;;5.10;69.40;;;;;;4842464;29;20088;-86
2021/01/31 12:11:57;;;;;;;15.38;10.60;;;5.10;69.40;;;;;;4831849;29;20061;-85
2021/01/31 12:14:23;;;;;;;16.48;11.40;;;5.20;69.20;;;;;;4814416;29;20041;-85
2021/01/31 12:16:49;;;;;;;16.33;11.63;;;5.20;69.20;;;;;;4854989;29;20388;-86
2021/01/31 12:19:15;;;;;;;18.13;11.50;;;5.20;69.00;;;;;;4857917;29;20034;-86
2021/01/31 12:21:40;;;;;;;16.48;11.23;;;5.20;69.20;;;;;;4839847;29;20030;-86
2021/01/31 12:24:06;;;;;;;14.20;10.32;;;5.20;68.80;;;;;;4859464;29;20525;-85
2021/01/31 12:26:33;;;;;;;15.32;10.85;;;5.20;69.10;;;;;;4860331;29;20101;-86
2021/01/31 12:29:07;;;;;;;15.57;10.80;;;5.20;68.90;;;;;;4835010;29;20182;-86
2021/01/31 12:31:33;;;;;;;17.48;11.65;;;5.20;68.60;;;;;;4856373;29;20076;-85
2021/01/31 12:33:59;;;;;;;16.40;10.60;;;5.20;68.50;;;;;;4853000;29;20079;-85
2021/01/31 12:36:24;;;;;;;15.43;10.80;;;5.10;68.30;;;;;;4852390;29;20023;-85
2021/01/31 12:38:50;;;;;;;14.43;10.30;;;5.10;68.30;;;;;;4843112;29;20069;-84
2021/01/31 12:41:16;;;;;;;15.30;10.45;;;5.10;68.20;;;;;;4854842;29;20045;-85
2021/01/31 12:43:41;;;;;;;16.92;11.65;;;5.10;68.10;;;;;;4842797;29;20061;-85
2021/01/31 12:46:07;;;;;;;16.63;10.57;;;5.10;67.90;;;;;;4841302;29;20033;-84
2021/01/31 12:48:33;;;;;;;15.57;10.55;;;5.00;68.10;;;;;;4860387;29;20045;-84
2021/01/31 12:50:58;;;;;;;15.10;10.18;;;5.00;68.30;;;;;;4859301;29;20049;-84
2021/01/31 12:53:24;;;;;;;15.65;10.68;;;5.10;68.30;;;;;;4859300;29;20033;-84
2021/01/31 12:55:50;;;;;;;15.13;9.75;;;5.10;68.00;;;;;;4901879;24;20439;-89
2021/01/31 12:58:16;;;;;;;15.77;10.73;;;5.00;67.80;;;;;;4878597;29;20029;-89
2021/01/31 13:00:44;;;;;;;12.98;9.32;;;5.00;68.00;;;;;;4849862;29;20119;-88
2021/01/31 13:03:10;;;;;;;17.83;10.77;;;5.10;68.30;;;;;;4850933;29;20060;-89
2021/01/31 13:05:36;;;;;;;15.00;10.80;;;5.00;67.50;;;;;;4866318;29;20124;-88
2021/01/31 13:08:03;;;;;;;13.48;9.48;;;5.00;67.60;;;;;;4879341;29;20043;-89
2021/01/31 13:10:30;;;;;;;13.55;9.93;;;5.00;67.60;;;;;;4900206;29;20489;-89
2021/01/31 13:13:01;;;;;;;12.77;9.27;;;5.00;67.90;;;;;;4889704;29;20131;-88
2021/01/31 13:15:27;;;;;;;13.65;9.57;;;5.00;68.10;;;;;;4865240;29;20039;-88
2021/01/31 13:17:54;;;;;;;13.43;9.30;;;5.00;68.10;;;;;;4850586;29;20132;-88
2021/01/31 13:20:52;;;;;;;15.45;10.00;;;5.00;68.20;;;;;;4866293;29;20028;-88
2021/01/31 13:23:26;;;;;;;14.98;10.20;;;5.00;68.10;;;;;;4868194;29;20068;-91
2021/01/31 13:25:52;;;;;;;13.73;9.20;;;5.00;68.10;;;;;;4860455;29;20044;-91
2021/01/31 13:28:17;;;;;;;11.65;8.43;;;5.00;68.00;;;;;;4862250;29;20051;-91
2021/01/31 13:30:48;;;;;;;13.43;9.55;;;5.00;68.20;;;;;;4878357;29;20039;-90
2021/01/31 13:33:14;;;;;;;12.52;8.10;;;5.00;68.00;;;;;;4886189;29;20435;-90